Time;durP1;ratioP1;P1;durP2;ratioP2;P2;SDS_P1;SDS_P2;PMS_P1;PMS_P2;Temp;Humidity;BMP_temperature;BMP_pressure;BME280_temperature;BME280_humidity;BME280_pressure;Samples;Min_cycle;Max_cycle;Signal;HPM_P1;HPM_P2
2023/01/07 00:02:00;;;;;;;9.43;6.15;;;;;;;12.55;62.06;101544.28;4953361;28;96843;-75
2023/01/07 00:04:28;;;;;;;8.25;6.57;;;;;;;12.51;61.87;101540.88;4953017;28;96869;-76
2023/01/07 00:06:55;;;;;;;7.18;6.10;;;;;;;12.50;61.78;101540.91;4947344;28;102281;-76
2023/01/07 00:09:21;;;;;;;8.50;6.15;;;;;;;12.42;61.87;101540.28;4947605;28;99156;-75
2023/01/07 00:11:47;;;;;;;8.65;6.50;;;;;;;12.61;61.38;101537.00;4951697;28;96680;-75
2023/01/07 00:14:14;;;;;;;11.07;6.53;;;;;;;12.56;61.41;101520.38;4951152;28;97819;-75
2023/01/07 00:16:41;;;;;;;9.20;6.53;;;;;;;12.54;61.43;101523.97;4949804;28;99029;-76
2023/01/07 00:19:12;;;;;;;12.32;6.13;;;;;;;12.52;61.55;101509.94;4946847;28;98864;-75
2023/01/07 00:21:40;;;;;;;8.32;5.47;;;;;;;12.21;62.30;101508.19;4945846;28;98758;-72
2023/01/07 00:24:09;;;;;;;9.20;6.15;;;;;;;12.54;61.50;101508.94;4945030;28;98684;-73
2023/01/07 00:26:37;;;;;;;6.93;5.68;;;;;;;12.26;62.12;101522.22;4946598;28;98378;-72
2023/01/07 00:29:05;;;;;;;8.63;6.10;;;;;;;12.48;61.64;101513.56;4947821;28;99312;-74
2023/01/07 00:31:33;;;;;;;9.65;5.95;;;;;;;12.53;61.27;101524.94;4950173;28;97332;-73
2023/01/07 00:34:07;;;;;;;9.98;5.90;;;;;;;12.28;61.98;101528.31;4950795;28;98060;-73
2023/01/07 00:36:37;;;;;;;7.20;5.85;;;;;;;12.24;62.23;101531.97;4948693;28;101318;-71
2023/01/07 00:39:06;;;;;;;9.15;5.85;;;;;;;12.19;62.43;101527.72;4949009;28;98897;-73
2023/01/07 00:41:36;;;;;;;8.57;5.38;;;;;;;12.21;62.29;101521.44;4950828;28;98683;-74
2023/01/07 00:44:03;;;;;;;8.73;6.05;;;;;;;12.27;62.29;101518.63;4950116;28;96911;-74
2023/01/07 00:46:31;;;;;;;9.65;5.93;;;;;;;12.12;62.76;101516.44;4946138;28;99292;-73
2023/01/07 00:48:57;;;;;;;8.43;5.10;;;;;;;12.09;62.88;101516.53;4950960;28;99207;-73
2023/01/07 00:51:24;;;;;;;7.20;5.10;;;;;;;12.02;63.15;101524.69;4950435;28;97071;-71
2023/01/07 00:53:51;;;;;;;8.65;5.03;;;;;;;11.88;64.31;101523.31;4951259;28;99043;-74
2023/01/07 00:56:19;;;;;;;6.07;4.85;;;;;;;11.89;64.07;101526.81;4949269;28;97813;-73
2023/01/07 00:58:45;;;;;;;8.25;5.15;;;;;;;11.99;64.10;101520.38;4951132;28;99189;-73
2023/01/07 01:01:13;;;;;;;5.32;4.53;;;;;;;11.96;63.98;101525.75;4949021;28;96858;-73
2023/01/07 01:03:40;;;;;;;9.57;4.55;;;;;;;12.04;63.67;101536.13;4947441;28;96971;-72
2023/01/07 01:06:08;;;;;;;9.55;4.90;;;;;;;12.07;63.64;101526.31;4949107;28;99213;-73
2023/01/07 01:08:35;;;;;;;6.28;4.43;;;;;;;12.12;63.64;101531.47;4947378;28;98929;-74
2023/01/07 01:11:03;;;;;;;8.70;4.85;;;;;;;12.09;63.94;101524.47;4949080;28;97241;-72
2023/01/07 01:13:32;;;;;;;6.60;4.72;;;;;;;12.12;63.60;101523.53;4951044;28;97510;-73
2023/01/07 01:15:58;;;;;;;4.85;3.88;;;;;;;12.19;63.65;101523.31;4951348;28;99053;-73
2023/01/07 01:18:25;;;;;;;5.15;4.43;;;;;;;12.07;64.16;101528.09;4951596;28;98873;-72
2023/01/07 01:20:51;;;;;;;7.50;4.63;;;;;;;12.19;63.71;101531.25;4950209;28;97948;-74
2023/01/07 01:23:18;;;;;;;6.85;4.53;;;;;;;12.20;63.81;101532.13;4948495;28;96866;-72
2023/01/07 01:25:45;;;;;;;5.43;4.10;;;;;;;12.36;63.25;101528.06;4950106;28;100949;-73
2023/01/07 01:28:11;;;;;;;7.40;4.43;;;;;;;12.39;62.89;101530.66;4949760;28;98995;-73
2023/01/07 01:30:39;;;;;;;5.22;4.32;;;;;;;12.37;63.19;101529.81;4946930;28;97561;-74
2023/01/07 01:33:05;;;;;;;10.50;4.05;;;;;;;12.27;63.67;101531.03;4950400;28;96826;-74
2023/01/07 01:35:32;;;;;;;5.18;3.95;;;;;;;12.07;64.43;101533.41;4950786;28;99307;-73
2023/01/07 01:37:59;;;;;;;6.47;3.70;;;;;;;12.20;63.90;101537.41;4948510;28;99094;-73
2023/01/07 01:40:28;;;;;;;10.98;4.10;;;;;;;12.22;63.71;101531.13;4950186;28;97287;-74
2023/01/07 01:42:55;;;;;;;8.02;3.63;;;;;;;12.05;64.42;101528.13;4942249;28;98305;-74
2023/01/07 01:45:23;;;;;;;6.55;3.88;;;;;;;12.06;64.50;101526.34;4949637;28;99002;-74
2023/01/07 01:47:57;;;;;;;4.78;3.92;;;;;;;12.20;64.18;101524.16;4948794;28;99975;-73
2023/01/07 01:50:28;;;;;;;8.00;4.00;;;;;;;12.06;64.76;101515.75;4951051;28;97375;-73
2023/01/07 01:52:59;;;;;;;5.13;3.88;;;;;;;12.02;64.87;101512.31;4945011;28;96931;-71
2023/01/07 01:55:31;;;;;;;4.32;3.20;;;;;;;12.12;64.47;101511.16;4948333;28;98298;-71
2023/01/07 01:58:02;;;;;;;4.70;3.47;;;;;;;12.01;64.91;101512.38;4945349;28;98864;-73
2023/01/07 02:00:29;;;;;;;5.00;3.90;;;;;;;12.38;63.80;101513.00;4946781;28;96783;-72
2023/01/07 02:02:59;;;;;;;7.70;3.58;;;;;;;12.16;64.48;101515.44;4948226;28;98696;-73
2023/01/07 02:05:28;;;;;;;5.68;3.88;;;;;;;12.15;64.48;101513.69;4948719;28;98966;-72
2023/01/07 02:07:54;;;;;;;6.70;3.65;;;;;;;12.17;64.39;101514.53;4947684;28;98839;-74
2023/01/07 02:10:23;;;;;;;5.07;3.85;;;;;;;12.11;64.54;101512.06;4944835;28;97672;-72
2023/01/07 02:13:04;;;;;;;7.15;3.83;;;;;;;12.28;64.35;101512.41;4945319;28;96882;-72
2023/01/07 02:15:40;;;;;;;6.38;4.40;;;;;;;12.50;63.31;101501.16;4950787;28;99281;-73
2023/01/07 02:18:19;;;;;;;5.55;3.70;;;;;;;12.41;63.77;101507.59;4950577;28;97564;-73
2023/01/07 02:21:03;;;;;;;5.22;3.88;;;;;;;12.48;63.63;101506.50;4947258;28;97143;-73
2023/01/07 02:24:03;;;;;;;5.25;3.60;;;;;;;12.41;64.00;101504.94;4944980;28;96833;-72
2023/01/07 02:26:57;;;;;;;4.07;3.42;;;;;;;12.20;64.83;101500.31;4947543;28;98854;-72
2023/01/07 02:29:56;;;;;;;4.72;3.58;;;;;;;12.30;64.61;101499.13;4948460;28;99143;-72
2023/01/07 02:32:35;;;;;;;5.03;3.63;;;;;;;12.26;64.77;101497.50;4951866;28;97023;-73
2023/01/07 02:35:10;;;;;;;4.78;3.63;;;;;;;12.25;64.67;101479.84;4950007;28;98623;-72
2023/01/07 02:37:46;;;;;;;6.53;4.38;;;;;;;12.10;65.04;101475.00;4951338;28;98399;-72
2023/01/07 02:40:20;;;;;;;5.05;3.70;;;;;;;12.20;65.01;101474.69;4952172;28;97698;-73
2023/01/07 02:42:58;;;;;;;5.50;3.60;;;;;;;12.05;65.16;101483.09;4952651;28;97006;-72
2023/01/07 02:45:29;;;;;;;6.38;3.78;;;;;;;12.00;65.74;101474.44;4953170;28;97248;-72
2023/01/07 02:47:59;;;;;;;6.57;4.03;;;;;;;11.96;65.88;101480.72;4953333;28;101638;-72
2023/01/07 02:50:26;;;;;;;4.90;3.70;;;;;;;12.08;65.07;101487.44;4953288;28;101178;-72
2023/01/07 02:52:52;;;;;;;6.38;3.65;;;;;;;11.93;65.98;101484.34;4953055;28;96886;-72
2023/01/07 02:55:25;;;;;;;5.80;4.10;;;;;;;12.04;65.38;101476.06;4953229;28;96805;-74
2023/01/07 02:58:19;;;;;;;5.68;3.60;;;;;;;12.04;65.65;101483.13;4948605;28;99405;-72
2023/01/07 03:01:04;;;;;;;6.50;4.03;;;;;;;12.19;65.10;101485.34;4951084;28;99045;-73
2023/01/07 03:03:48;;;;;;;6.63;4.70;;;;;;;12.08;65.30;101472.41;4951563;28;99535;-72
2023/01/07 03:06:38;;;;;;;7.65;4.70;;;;;;;12.02;65.77;101479.66;4949320;28;97104;-72
2023/01/07 03:09:11;;;;;;;6.63;5.20;;;;;;;11.89;66.30;101477.38;4950635;28;100602;-73
2023/01/07 03:11:45;;;;;;;7.55;5.55;;;;;;;11.76;66.99;101475.13;4949638;28;99017;-72
2023/01/07 03:14:18;;;;;;;10.45;6.25;;;;;;;11.87;66.68;101470.41;4953415;28;96728;-72
2023/01/07 03:16:51;;;;;;;13.95;7.38;;;;;;;11.88;66.86;101477.44;4951342;28;98865;-73
2023/01/07 03:19:25;;;;;;;10.00;7.10;;;;;;;12.01;66.61;101481.47;4950043;28;99777;-73
2023/01/07 03:21:54;;;;;;;11.13;7.03;;;;;;;11.88;66.80;101475.63;4951940;28;99825;-72
2023/01/07 03:24:23;;;;;;;13.35;8.00;;;;;;;11.74;67.57;101476.97;4949937;28;96797;-75
2023/01/07 03:26:52;;;;;;;14.73;8.30;;;;;;;11.94;67.07;101474.63;4947568;28;96928;-73
2023/01/07 03:29:19;;;;;;;11.75;7.93;;;;;;;12.13;66.48;101486.41;4943633;28;99513;-72
2023/01/07 03:31:53;;;;;;;10.98;8.00;;;;;;;12.11;66.60;101477.63;4945294;28;98185;-73
2023/01/07 03:34:23;;;;;;;11.52;8.55;;;;;;;12.09;66.55;101482.09;4947201;28;96939;-72
2023/01/07 03:36:54;;;;;;;12.45;8.82;;;;;;;12.23;66.28;101479.88;4951804;28;98530;-72
2023/01/07 03:39:24;;;;;;;13.23;8.57;;;;;;;12.10;66.60;101480.31;4948232;28;99495;-72
2023/01/07 03:44:35;;;;;;;12.57;8.88;;;;;;;12.15;67.11;101478.38;4949424;28;96809;-72
2023/01/07 03:47:02;;;;;;;11.52;9.27;;;;;;;11.99;67.40;101480.63;4950566;28;96828;-72
2023/01/07 03:49:30;;;;;;;13.32;9.00;;;;;;;12.14;67.20;101471.38;4951151;28;101061;-72
2023/01/07 03:51:57;;;;;;;12.43;9.13;;;;;;;12.04;67.35;101476.06;4950370;28;98982;-72
2023/01/07 03:54:23;;;;;;;12.20;9.52;;;;;;;12.31;66.25;101464.63;4949474;28;99570;-72
2023/01/07 03:56:50;;;;;;;13.15;9.38;;;;;;;12.08;66.94;101461.81;4950681;28;99415;-73
2023/01/07 03:59:16;;;;;;;16.23;9.18;;;;;;;12.18;66.84;101447.38;4948785;28;97824;-72
2023/01/07 04:01:43;;;;;;;13.93;9.38;;;;;;;12.16;67.01;101443.91;4952296;28;97709;-72
2023/01/07 04:04:09;;;;;;;14.40;9.45;;;;;;;12.14;66.82;101437.78;4946164;28;96731;-72
2023/01/07 04:06:37;;;;;;;12.23;9.18;;;;;;;12.12;66.92;101446.69;4952159;28;97224;-72
2023/01/07 04:09:04;;;;;;;14.05;9.50;;;;;;;12.10;67.18;101432.63;4944726;28;99681;-72
2023/01/07 04:11:30;;;;;;;13.10;9.00;;;;;;;12.11;67.00;101435.22;4948485;28;98366;-73
2023/01/07 04:13:59;;;;;;;15.55;9.88;;;;;;;12.13;66.75;101435.19;4947483;28;96837;-72
2023/01/07 04:16:25;;;;;;;12.70;9.50;;;;;;;12.06;67.36;101434.50;4945119;28;97520;-72
2023/01/07 04:18:52;;;;;;;13.45;10.23;;;;;;;12.19;66.95;101424.41;4948611;28;99111;-72
2023/01/07 04:21:19;;;;;;;14.25;9.23;;;;;;;12.15;66.79;101430.69;4945901;28;98816;-72
2023/01/07 04:23:46;;;;;;;15.65;9.63;;;;;;;11.96;67.52;101430.38;4945743;28;96811;-73
2023/01/07 04:26:13;;;;;;;12.57;9.25;;;;;;;11.96;67.60;101425.97;4946940;28;96964;-73
2023/01/07 04:28:39;;;;;;;13.05;9.77;;;;;;;12.07;67.47;101414.19;4948848;28;98585;-73
2023/01/07 04:31:06;;;;;;;12.35;9.23;;;;;;;12.24;66.70;101420.69;4947723;28;98834;-71
2023/01/07 04:33:32;;;;;;;13.35;9.43;;;;;;;12.20;66.85;101418.19;4951121;28;98919;-73
2023/01/07 04:35:59;;;;;;;12.40;9.55;;;;;;;12.20;66.69;101418.19;4949814;28;97044;-72
2023/01/07 04:38:25;;;;;;;13.70;9.07;;;;;;;12.20;66.60;101419.06;4950640;28;98104;-72
2023/01/07 04:40:53;;;;;;;11.50;8.70;;;;;;;12.13;67.29;101427.25;4951144;28;98893;-72
2023/01/07 04:43:20;;;;;;;12.35;8.77;;;;;;;11.99;67.63;101430.31;4949777;28;97129;-71
2023/01/07 04:45:46;;;;;;;12.50;9.02;;;;;;;12.12;67.15;101431.66;4950505;28;97206;-71
2023/01/07 04:48:13;;;;;;;13.73;9.25;;;;;;;12.30;66.78;101422.25;4951983;28;99587;-72
2023/01/07 04:50:39;;;;;;;13.93;9.20;;;;;;;12.19;66.86;101422.63;4946877;28;99275;-72
2023/01/07 04:53:05;;;;;;;13.63;9.65;;;;;;;12.17;67.23;101419.13;4947703;28;96783;-73
2023/01/07 04:55:32;;;;;;;11.93;8.55;;;;;;;12.26;66.83;101418.00;4947179;28;96898;-72
2023/01/07 04:58:00;;;;;;;11.18;9.15;;;;;;;12.22;67.10;101417.22;4947940;28;98265;-71
2023/01/07 05:00:26;;;;;;;13.18;8.85;;;;;;;12.38;66.31;101423.75;4946440;28;98895;-71
2023/01/07 05:02:53;;;;;;;13.07;8.50;;;;;;;12.32;66.82;101417.78;4949041;28;97097;-72
2023/01/07 05:05:19;;;;;;;12.32;8.30;;;;;;;12.11;67.57;101423.75;4946505;28;96998;-73
2023/01/07 05:07:45;;;;;;;11.27;8.30;;;;;;;12.33;66.81;101427.47;4944554;28;97821;-73
2023/01/07 05:10:12;;;;;;;11.38;8.45;;;;;;;12.26;67.38;101418.88;4944396;28;97946;-73
2023/01/07 05:12:39;;;;;;;11.80;8.38;;;;;;;12.43;66.80;101426.25;4949925;28;97357;-72
2023/01/07 05:15:08;;;;;;;12.70;8.65;;;;;;;12.44;67.04;101429.78;4951311;28;98710;-71
2023/01/07 05:17:34;;;;;;;10.88;8.23;;;;;;;12.55;66.81;101423.19;4951645;28;98207;-72
2023/01/07 05:20:01;;;;;;;11.25;8.05;;;;;;;12.58;66.41;101419.59;4951915;28;98946;-73
2023/01/07 05:22:27;;;;;;;11.93;8.40;;;;;;;12.61;66.58;101424.78;4950055;28;96883;-73
2023/01/07 05:24:54;;;;;;;13.05;8.50;;;;;;;12.67;66.30;101419.28;4947313;28;96910;-72
2023/01/07 05:27:21;;;;;;;14.10;8.50;;;;;;;12.82;65.88;101416.09;4948240;28;99202;-71
2023/01/07 05:29:47;;;;;;;11.43;8.85;;;;;;;12.68;66.11;101418.34;4944835;28;99792;-74
2023/01/07 05:32:15;;;;;;;13.15;8.82;;;;;;;12.92;65.65;101414.03;4946198;28;96801;-73
2023/01/07 05:34:41;;;;;;;14.85;8.57;;;;;;;12.80;65.99;101414.44;4948272;28;97187;-72
2023/01/07 05:37:08;;;;;;;16.95;8.70;;;;;;;12.70;65.99;101405.94;4948249;28;98607;-72
2023/01/07 05:39:35;;;;;;;10.73;8.50;;;;;;;12.71;66.12;101405.00;4946058;28;98831;-72
2023/01/07 05:42:01;;;;;;;10.68;8.13;;;;;;;12.81;65.81;101401.13;4948269;28;98063;-72
2023/01/07 05:44:27;;;;;;;11.75;8.48;;;;;;;12.45;66.89;101410.31;4947197;28;96865;-72
2023/01/07 05:46:54;;;;;;;14.38;8.13;;;;;;;12.70;66.16;101403.28;4944241;28;98915;-74
2023/01/07 05:49:21;;;;;;;14.98;8.80;;;;;;;12.75;66.11;101406.63;4948732;28;98982;-72
2023/01/07 05:51:48;;;;;;;11.65;8.57;;;;;;;12.73;66.35;101408.50;4945051;28;96727;-71
2023/01/07 05:54:15;;;;;;;14.82;8.50;;;;;;;12.78;66.13;101410.06;4949528;28;98448;-72
2023/01/07 05:56:41;;;;;;;10.65;8.43;;;;;;;12.45;66.87;101405.88;4950495;28;98959;-71
2023/01/07 05:59:08;;;;;;;11.38;8.57;;;;;;;12.97;65.60;101406.78;4947952;28;98798;-70
2023/01/07 06:04:15;;;;;;;11.75;7.78;;;;;;;12.86;65.51;101401.84;4937387;28;96952;-71
2023/01/07 06:06:43;;;;;;;11.90;8.05;;;;;;;12.83;65.51;101399.28;4946809;28;98957;-70
2023/01/07 06:09:10;;;;;;;11.00;8.70;;;;;;;12.80;65.47;101403.84;4946550;28;99153;-72
2023/01/07 06:11:37;;;;;;;13.40;8.48;;;;;;;12.76;66.14;101403.94;4948322;28;97099;-72
2023/01/07 06:14:03;;;;;;;11.93;8.80;;;;;;;12.72;65.91;101404.97;4948087;28;96880;-71
2023/01/07 06:16:29;;;;;;;10.25;8.55;;;;;;;12.81;65.96;101405.53;4945283;28;99501;-71
2023/01/07 06:18:56;;;;;;;10.75;8.07;;;;;;;12.60;66.38;101407.16;4944908;28;102415;-73
2023/01/07 06:21:22;;;;;;;12.20;8.88;;;;;;;12.83;66.18;101412.53;4945259;28;96688;-74
2023/01/07 06:23:50;;;;;;;11.27;8.73;;;;;;;13.07;64.94;101403.72;4946476;28;97512;-72
2023/01/07 06:26:17;;;;;;;10.13;8.25;;;;;;;12.65;66.45;101415.81;4943545;28;99080;-74
2023/01/07 06:28:43;;;;;;;12.02;7.63;;;;;;;12.66;66.44;101417.56;4947496;28;99329;-74
2023/01/07 06:31:10;;;;;;;14.13;8.48;;;;;;;12.94;65.71;101412.16;4948121;28;97762;-72
2023/01/07 06:33:39;;;;;;;12.60;7.72;;;;;;;12.69;66.26;101412.13;4944250;28;97595;-73
2023/01/07 06:36:06;;;;;;;15.57;8.57;;;;;;;12.93;65.61;101413.13;4949627;28;100524;-73
2023/01/07 06:38:32;;;;;;;12.57;7.97;;;;;;;12.84;65.83;101410.75;4946064;28;99475;-74
2023/01/07 06:41:01;;;;;;;12.75;7.60;;;;;;;12.97;65.42;101417.38;4949179;28;98797;-74
2023/01/07 06:43:28;;;;;;;11.85;8.20;;;;;;;12.94;65.52;101418.34;4945277;28;96925;-74
2023/01/07 06:45:55;;;;;;;9.43;7.70;;;;;;;12.48;66.83;101418.16;4948222;28;98690;-75
2023/01/07 06:48:21;;;;;;;13.98;8.45;;;;;;;12.86;66.17;101415.09;4950120;28;97487;-74
2023/01/07 06:50:47;;;;;;;14.13;7.80;;;;;;;12.60;66.92;101408.00;4946613;28;96820;-73
2023/01/07 06:53:14;;;;;;;13.18;8.10;;;;;;;12.60;66.77;101401.88;4949567;28;96799;-73
2023/01/07 06:55:40;;;;;;;9.88;7.78;;;;;;;12.91;66.07;101404.34;4945565;28;98976;-73
2023/01/07 06:58:08;;;;;;;9.25;7.38;;;;;;;12.98;65.70;101408.50;4948020;28;97805;-71
2023/01/07 07:00:34;;;;;;;11.05;7.88;;;;;;;12.87;66.08;101416.81;4946418;28;97761;-73
2023/01/07 07:03:01;;;;;;;10.82;7.63;;;;;;;12.83;66.31;101425.81;4951089;28;97245;-73
2023/01/07 07:05:28;;;;;;;11.93;7.40;;;;;;;13.03;65.81;101414.50;4944988;28;99299;-73
2023/01/07 07:07:54;;;;;;;12.00;7.82;;;;;;;12.88;66.06;101413.25;4946840;28;98877;-73
2023/01/07 07:10:21;;;;;;;10.05;7.32;;;;;;;12.71;66.70;101418.28;4946572;28;96930;-73
2023/01/07 07:12:47;;;;;;;8.25;7.00;;;;;;;12.75;66.62;101415.44;4945804;28;97096;-73
2023/01/07 07:15:15;;;;;;;7.47;6.45;;;;;;;12.72;67.12;101420.88;4948317;28;98802;-72
2023/01/07 07:17:41;;;;;;;8.32;6.57;;;;;;;12.71;66.97;101420.91;4951800;28;99615;-73
2023/01/07 07:20:09;;;;;;;9.60;6.85;;;;;;;12.62;67.09;101421.22;4949796;28;99128;-72
2023/01/07 07:22:35;;;;;;;8.68;6.28;;;;;;;12.60;67.22;101415.13;4951476;28;96975;-73
2023/01/07 07:25:02;;;;;;;9.38;6.20;;;;;;;12.85;66.56;101420.47;4951989;28;99751;-73
2023/01/07 07:27:28;;;;;;;9.07;6.63;;;;;;;12.77;67.10;101418.06;4950618;28;99997;-73
2023/01/07 07:29:55;;;;;;;9.23;6.63;;;;;;;12.71;66.90;101418.28;4948840;28;97117;-72
2023/01/07 07:32:27;;;;;;;10.35;6.88;;;;;;;12.90;66.26;101418.50;4946536;28;98842;-72
2023/01/07 07:34:53;;;;;;;7.30;5.90;;;;;;;12.84;66.42;101416.06;4948696;28;99597;-72
2023/01/07 07:37:20;;;;;;;11.30;6.47;;;;;;;12.84;66.71;101416.06;4950577;28;98863;-72
2023/01/07 07:39:46;;;;;;;6.78;5.95;;;;;;;12.97;66.12;101433.28;4950103;28;96827;-71
2023/01/07 07:42:13;;;;;;;8.70;6.75;;;;;;;12.93;66.15;101429.88;4949926;28;97251;-73
2023/01/07 07:44:39;;;;;;;7.55;6.22;;;;;;;12.83;66.74;101436.41;4946056;28;99147;-71
2023/01/07 07:47:07;;;;;;;8.77;6.38;;;;;;;12.88;66.50;101429.16;4950245;28;97555;-72
2023/01/07 07:49:35;;;;;;;9.55;6.70;;;;;;;12.72;66.99;101426.19;4951696;28;98146;-71
2023/01/07 07:52:02;;;;;;;7.85;5.80;;;;;;;12.92;66.51;101429.94;4947393;28;96960;-71
2023/01/07 07:54:28;;;;;;;8.55;6.50;;;;;;;12.97;66.44;101428.84;4952404;28;97673;-73
2023/01/07 07:56:57;;;;;;;9.57;5.70;;;;;;;12.84;66.72;101431.97;4951126;28;99304;-71
2023/01/07 07:59:23;;;;;;;8.73;6.15;;;;;;;13.14;65.88;101426.50;4949490;28;96833;-71
2023/01/07 08:01:50;;;;;;;7.47;5.90;;;;;;;13.04;66.13;101430.38;4949854;28;97265;-74
2023/01/07 08:04:16;;;;;;;9.00;6.25;;;;;;;13.02;66.19;101434.00;4946702;28;99532;-73
2023/01/07 08:06:44;;;;;;;9.45;5.97;;;;;;;13.14;65.89;101437.13;4952522;28;97735;-72
2023/01/07 08:09:11;;;;;;;8.30;5.82;;;;;;;13.27;65.37;101428.72;4951639;28;96833;-73
2023/01/07 08:11:37;;;;;;;7.13;5.57;;;;;;;13.21;65.28;101429.81;4951300;28;97707;-72
2023/01/07 08:14:04;;;;;;;6.05;5.18;;;;;;;13.20;65.33;101419.25;4949079;28;99070;-72
2023/01/07 08:16:30;;;;;;;6.57;5.55;;;;;;;12.91;66.73;101423.75;4947276;28;99616;-72
2023/01/07 08:18:57;;;;;;;19.42;11.82;;;;;;;13.07;66.05;101417.00;4950519;28;96834;-72
2023/01/07 08:21:23;;;;;;;7.68;5.93;;;;;;;13.04;65.83;101414.47;4948490;28;97498;-72
2023/01/07 08:23:51;;;;;;;9.98;5.07;;;;;;;13.05;65.79;101416.19;4947679;28;102221;-73
2023/01/07 08:26:18;;;;;;;11.55;5.00;;;;;;;13.22;65.29;101418.28;4950254;28;98970;-73
2023/01/07 08:28:44;;;;;;;7.70;5.07;;;;;;;13.03;66.10;101417.16;4942561;28;96967;-74
2023/01/07 08:31:11;;;;;;;8.05;5.00;;;;;;;13.20;65.48;101422.75;4950112;28;97138;-73
2023/01/07 08:33:38;;;;;;;5.60;4.50;;;;;;;13.17;65.23;101412.28;4942633;28;99376;-73
2023/01/07 08:36:07;;;;;;;5.95;5.07;;;;;;;13.13;65.41;101421.25;4947996;28;97703;-72
2023/01/07 08:38:34;;;;;;;6.32;5.00;;;;;;;13.35;64.92;101408.94;4945122;28;97037;-73
2023/01/07 08:41:01;;;;;;;5.50;4.90;;;;;;;13.53;64.12;101408.25;4950558;28;96882;-72
2023/01/07 08:43:29;;;;;;;6.85;5.22;;;;;;;13.34;64.89;101406.34;4949971;28;99014;-70
2023/01/07 08:45:56;;;;;;;5.28;4.78;;;;;;;13.33;64.86;101412.56;4945032;28;99335;-74
2023/01/07 08:48:26;;;;;;;6.68;4.60;;;;;;;13.45;64.30;101410.38;4947217;28;97560;-73
2023/01/07 08:50:54;;;;;;;5.53;4.65;;;;;;;13.76;63.63;101412.72;4951783;28;97067;-73
2023/01/07 08:53:21;;;;;;;7.22;5.10;;;;;;;13.59;63.98;101407.16;4948007;28;99037;-73
2023/01/07 08:55:47;;;;;;;8.55;4.72;;;;;;;13.45;64.44;101399.75;4950300;28;100974;-73
2023/01/07 08:58:15;;;;;;;7.18;4.40;;;;;;;13.57;64.08;101406.38;4952296;28;96823;-72
2023/01/07 09:00:42;;;;;;;5.43;4.22;;;;;;;13.40;64.11;101407.00;4947749;28;97103;-71
2023/01/07 09:03:09;;;;;;;5.22;3.95;;;;;;;13.50;64.26;101405.75;4948984;28;99571;-73
2023/01/07 09:05:36;;;;;;;5.40;3.63;;;;;;;13.48;64.74;101412.03;4945939;28;98975;-73
2023/01/07 09:08:03;;;;;;;5.72;4.00;;;;;;;13.61;64.00;101400.03;4942002;28;97161;-73
2023/01/07 09:10:30;;;;;;;5.10;4.20;;;;;;;13.72;63.75;101411.09;4945154;28;97698;-74
2023/01/07 09:12:57;;;;;;;5.45;4.28;;;;;;;13.68;63.52;101406.84;4945154;28;99426;-72
2023/01/07 09:15:25;;;;;;;7.38;4.20;;;;;;;13.84;62.97;101400.03;4946348;28;99710;-72
2023/01/07 09:17:51;;;;;;;3.85;3.40;;;;;;;13.66;63.68;101413.13;4945353;28;96800;-72
2023/01/07 09:20:18;;;;;;;4.28;3.45;;;;;;;13.70;62.91;101399.69;4943806;28;97891;-73
2023/01/07 09:22:45;;;;;;;4.47;3.63;;;;;;;13.70;63.09;101399.69;4947578;28;100319;-73
2023/01/07 09:25:14;;;;;;;4.68;4.07;;;;;;;14.02;62.25;101401.09;4940893;28;99296;-73
2023/01/07 09:27:42;;;;;;;5.05;3.63;;;;;;;14.02;62.07;101397.56;4943174;28;97289;-71
2023/01/07 09:30:09;;;;;;;3.97;3.50;;;;;;;13.81;62.39;101401.91;4946211;28;96902;-73
2023/01/07 09:32:37;;;;;;;4.30;3.50;;;;;;;14.01;62.15;101398.50;4945340;28;99245;-72
2023/01/07 09:35:10;;;;;;;6.82;3.40;;;;;;;13.86;61.98;101400.81;4945843;28;98755;-74
2023/01/07 09:37:37;;;;;;;5.13;3.50;;;;;;;13.78;62.52;101394.94;4945628;28;98708;-74
2023/01/07 09:40:05;;;;;;;5.18;3.45;;;;;;;13.72;62.62;101394.31;4941940;28;98971;-73
2023/01/07 09:42:40;;;;;;;5.50;3.53;;;;;;;13.93;61.98;101401.44;4943506;28;97731;-73
2023/01/07 09:45:15;;;;;;;6.05;3.45;;;;;;;14.09;61.71;101401.72;4945472;28;99733;-72
2023/01/07 09:47:50;;;;;;;4.05;3.63;;;;;;;14.00;62.04;101402.06;4946085;28;96909;-74
2023/01/07 09:50:26;;;;;;;5.35;3.35;;;;;;;14.19;61.20;101395.97;4944285;28;96830;-73
2023/01/07 09:52:56;;;;;;;4.65;4.00;;;;;;;14.17;61.09;101394.31;4942542;28;100984;-73
2023/01/07 09:55:35;;;;;;;3.70;3.38;;;;;;;14.21;61.53;101382.63;4950828;28;98763;-73
2023/01/07 09:58:02;;;;;;;7.22;4.20;;;;;;;14.50;61.15;101387.66;4944670;28;96919;-72
2023/01/07 10:00:30;;;;;;;4.53;3.33;;;;;;;14.37;60.89;101394.38;4945278;28;96901;-71
2023/01/07 10:03:13;;;;;;;6.35;3.50;;;;;;;14.35;61.02;101389.13;4940363;28;98985;-73
2023/01/07 10:05:47;;;;;;;6.95;3.40;;;;;;;14.55;60.40;101382.13;4939016;28;97925;-72
2023/01/07 10:08:26;;;;;;;6.93;3.33;;;;;;;14.49;60.09;101383.25;4942331;28;97208;-72
2023/01/07 10:11:00;;;;;;;3.75;3.35;;;;;;;14.58;60.12;101377.53;4945717;28;97458;-73
2023/01/07 10:13:42;;;;;;;5.22;3.42;;;;;;;14.71;59.78;101381.41;4941244;28;99457;-72
2023/01/07 10:16:18;;;;;;;3.70;3.30;;;;;;;14.74;59.35;101386.63;4942925;28;99130;-73
2023/01/07 10:18:53;;;;;;;4.23;3.23;;;;;;;14.47;60.18;101377.13;4947219;28;96991;-73
2023/01/07 10:21:24;;;;;;;3.80;3.37;;;;;;;14.56;60.16;101379.41;4947393;28;97595;-73
2023/01/07 10:23:56;;;;;;;4.95;3.50;;;;;;;14.50;60.54;101371.69;4946239;28;99011;-72
2023/01/07 10:26:31;;;;;;;6.32;3.60;;;;;;;14.67;59.73;101374.50;4946947;28;98915;-73
2023/01/07 10:29:02;;;;;;;3.40;3.10;;;;;;;14.75;59.50;101355.56;4944055;28;98834;-72
2023/01/07 10:31:29;;;;;;;3.22;2.88;;;;;;;14.66;60.00;101356.81;4939641;28;97418;-73
2023/01/07 10:33:59;;;;;;;4.47;3.67;;;;;;;14.57;60.12;101348.38;4939608;28;102006;-73
2023/01/07 10:36:27;;;;;;;4.25;2.88;;;;;;;14.66;59.87;101334.66;4942998;28;98843;-73
2023/01/07 10:39:01;;;;;;;8.40;3.72;;;;;;;14.89;59.26;101346.97;4947490;28;96889;-71
2023/01/07 10:41:39;;;;;;;4.32;2.95;;;;;;;14.68;59.41;101340.78;4943996;28;97250;-73
2023/01/07 10:44:33;;;;;;;3.53;2.85;;;;;;;14.54;60.10;101345.81;4941071;28;101733;-72
2023/01/07 10:47:10;;;;;;;4.55;3.28;;;;;;;14.50;60.20;101339.78;4943885;28;101240;-71
2023/01/07 10:49:56;;;;;;;6.45;3.58;;;;;;;14.66;59.98;101324.88;4947128;28;97192;-72
2023/01/07 10:52:31;;;;;;;5.90;3.40;;;;;;;14.99;59.08;101340.31;4947336;28;98637;-73
2023/01/07 10:55:11;;;;;;;4.68;2.95;;;;;;;14.77;59.64;101333.25;4947946;28;97723;-72
2023/01/07 10:57:38;;;;;;;5.97;2.92;;;;;;;14.81;59.34;101327.81;4951998;28;99370;-72
2023/01/07 11:00:07;;;;;;;5.78;3.22;;;;;;;14.86;59.16;101326.69;4950750;28;97171;-72
2023/01/07 11:02:34;;;;;;;5.15;2.67;;;;;;;14.78;58.79;101320.81;4948761;28;98240;-73
2023/01/07 11:05:02;;;;;;;3.78;2.85;;;;;;;14.63;59.48;101317.06;4943852;28;99325;-71
2023/01/07 11:07:42;;;;;;;5.00;2.65;;;;;;;14.61;59.42;101313.59;4950109;28;99348;-70
2023/01/07 11:10:15;;;;;;;3.38;2.72;;;;;;;14.50;60.22;101315.84;4942865;28;98385;-72
2023/01/07 11:12:46;;;;;;;2.65;2.20;;;;;;;14.56;59.70;101307.63;4950237;28;98046;-72
2023/01/07 11:15:24;;;;;;;2.92;2.60;;;;;;;14.52;59.98;101306.00;4942728;28;98872;-72
2023/01/07 11:17:55;;;;;;;2.83;2.35;;;;;;;14.59;59.83;101302.16;4947804;28;99293;-71
2023/01/07 11:20:46;;;;;;;4.05;2.40;;;;;;;14.69;59.28;101298.16;4945505;28;97064;-72
2023/01/07 11:23:19;;;;;;;2.42;2.22;;;;;;;14.69;59.37;101292.84;4949932;28;99419;-72
2023/01/07 11:25:46;;;;;;;3.42;2.80;;;;;;;14.80;59.10;101291.50;4950090;28;99537;-72
2023/01/07 11:28:18;;;;;;;3.28;2.10;;;;;;;14.71;59.23;101284.78;4949373;28;97607;-73
2023/01/07 11:30:55;;;;;;;3.13;2.00;;;;;;;14.73;58.70;101281.13;4946246;28;96812;-73
2023/01/07 11:33:23;;;;;;;;;;;;;;;14.95;58.47;101275.72;4952927;28;97103;-72
2023/01/07 11:35:54;;;;;;;2.88;2.13;;;;;;;14.98;58.10;101282.69;4943807;28;97744;-73
2023/01/07 11:38:27;;;;;;;2.50;1.85;;;;;;;14.94;58.18;101281.97;4939443;28;98884;-71